Impacts TAF Board
For situational awareness. Not to be used for flight planning purposes.
IDs:

KPDX - Portland Intl Arpt, OR, US

Issued at 2320 UTC 02 Jul 2022
Updated at 0150 UTC 03 Jul 2022
Potential Impact None Slight Moderate High
Time0053Z 03/02Z 03/03Z 03/04Z 03/05Z 03/06Z 03/07Z 03/08Z 03/09Z 03/10Z 03/11Z 03/12Z 03/13Z 03/14Z>>
Type OBS PRVL PRVL PRVL PRVL PRVL PRVL PRVL PRVL PRVL PRVL PRVL PRVL PRVL
VIS 10 >6 >6 >6 >6 >6 >6 >6 >6 >6 >6 >6 >6 >6
CIG -- 28 28 28 28 28 28 28 28 20 20 20 20 20
Cover SCT BKN BKN BKN BKN BKN BKN BKN BKN BKN BKN BKN BKN BKN
FltCat VFR MVFR MVFR MVFR MVFR MVFR MVFR MVFR MVFR MVFR MVFR MVFR MVFR MVFR
WX -- -- -- -- -- -- -- -- -- -SHRA -SHDZ -SHRA -SHDZ -SHRA -SHDZ -SHRA -SHDZ -SHRA -SHDZ
WDir 340 330 330 330 330 330 330 330 330 VRB VRB VRB VRB VRB
WSpd 4 8 8 8 8 8 8 8 8 3 3 3 3 3
WGst -- -- -- -- -- -- -- -- -- -- -- -- -- --
WSHgt -- -- -- -- -- -- -- -- -- -- -- -- -- --
WSDir -- -- -- -- -- -- -- -- -- -- -- -- -- --
WSSpd -- -- -- -- -- -- -- -- -- -- -- -- -- --
Raw TAF
KPDX 022320Z 0300/0324 33008KT P6SM BKN028
  FM031000 VRB03KT P6SM -SHRADZ BKN020
  FM031500 00000KT P6SM -SHRADZ OVC016
  FM031800 VRB04KT P6SM OVC021


Raw METAR
KPDX 030053Z 34004KT 10SM FEW035 FEW140 SCT220 22/13 A2990 RMK AO2 SLP123 T02170128
KPDX 030013Z 36004KT 10SM SCT029 SCT140 BKN220 21/13 A2991 RMK AO2 T02060128
KPDX 022353Z 34005KT 10SM BKN028 BKN180 21/13 A2991 RMK AO2 SLP128 T02060128 10206 20167 58010
KPDX 022253Z 29006KT 10SM BKN028 19/12 A2993 RMK AO2 SLP134 T01940122
KPDX 022241Z 30006KT 10SM BKN028 20/12 A2993 RMK AO2 T02000122

METAR Board
Radar Display
Forecast Discussion
For situational awareness. Not to be used for flight planning purposes.